Time;durP1;ratioP1;P1;durP2;ratioP2;P2;SDS_P1;SDS_P2;PMS_P1;PMS_P2;Temp;Humidity;BMP_temperature;BMP_pressure;BME280_temperature;BME280_humidity;BME280_pressure;Samples;Min_cycle;Max_cycle;Signal;HPM_P1;HPM_P2
2021/07/29 00:02:06;;;;;;;1.25;0.22;;;24.40;43.30;;;;;;5038947;28;20114;-44
2021/07/29 00:04:33;;;;;;;1.10;0.10;;;24.40;43.40;;;;;;5040574;28;20582;-50
2021/07/29 00:07:00;;;;;;;0.25;0.10;;;24.40;43.50;;;;;;5042198;28;20103;-50
2021/07/29 00:09:27;;;;;;;0.80;0.10;;;24.30;43.50;;;;;;5043543;28;20128;-47
2021/07/29 00:11:55;;;;;;;1.05;0.20;;;24.30;43.60;;;;;;5042074;28;20582;-46
2021/07/29 00:14:22;;;;;;;0.50;0.10;;;24.30;43.70;;;;;;5042349;28;20164;-44
2021/07/29 00:16:51;;;;;;;0.73;0.10;;;24.30;43.80;;;;;;5041485;28;20050;-46
2021/07/29 00:19:18;;;;;;;0.40;0.20;;;24.30;43.80;;;;;;5040629;28;20045;-50
2021/07/29 00:21:46;;;;;;;0.20;0.20;;;24.30;43.90;;;;;;5039469;28;20071;-47
2021/07/29 00:24:13;;;;;;;1.50;0.45;;;24.20;43.90;;;;;;5039920;28;20044;-46
2021/07/29 00:26:40;;;;;;;1.92;0.25;;;24.20;44.10;;;;;;5044048;28;20119;-48
2021/07/29 00:29:09;;;;;;;0.38;0.13;;;24.20;44.20;;;;;;5040775;28;20053;-49
2021/07/29 00:31:36;;;;;;;0.50;0.25;;;24.20;44.20;;;;;;5043357;28;20713;-50
2021/07/29 00:34:05;;;;;;;2.75;0.28;;;24.20;44.40;;;;;;5040753;28;20098;-47
2021/07/29 00:36:32;;;;;;;0.10;0.10;;;24.20;44.50;;;;;;5035233;28;20111;-49
2021/07/29 00:39:02;;;;;;;0.80;0.20;;;24.20;44.60;;;;;;5034472;28;20116;-51
2021/07/29 00:41:29;;;;;;;0.20;0.10;;;24.20;44.60;;;;;;5035308;28;20469;-48
2021/07/29 00:44:01;;;;;;;1.05;0.13;;;24.10;44.60;;;;;;5036456;28;20533;-52
2021/07/29 00:46:31;;;;;;;1.15;0.30;;;24.10;44.70;;;;;;5040130;28;20648;-50
2021/07/29 00:48:59;;;;;;;1.23;0.30;;;24.10;44.80;;;;;;5043549;28;20056;-45
2021/07/29 00:51:26;;;;;;;0.90;0.25;;;24.10;44.90;;;;;;5036423;28;20051;-48
2021/07/29 00:53:54;;;;;;;1.27;0.10;;;24.10;45.00;;;;;;5038421;28;20041;-43
2021/07/29 00:56:21;;;;;;;1.40;0.30;;;24.10;45.10;;;;;;5039480;28;20056;-48
2021/07/29 00:58:48;;;;;;;0.68;0.40;;;24.00;45.10;;;;;;5035375;28;20121;-48
2021/07/29 01:01:15;;;;;;;1.38;0.32;;;24.00;45.20;;;;;;5038299;28;20115;-49
2021/07/29 01:03:44;;;;;;;1.65;0.20;;;24.00;45.30;;;;;;5037315;28;20716;-50
2021/07/29 01:06:11;;;;;;;0.90;0.20;;;24.00;45.40;;;;;;5038070;28;20045;-51
2021/07/29 01:08:59;;;;;;;0.45;0.10;;;24.00;45.50;;;;;;5036285;28;20044;-48
2021/07/29 01:11:26;;;;;;;4.30;0.30;;;24.00;45.50;;;;;;5034060;28;20049;-50
2021/07/29 01:13:53;;;;;;;1.20;0.20;;;23.90;45.60;;;;;;5041881;28;20130;-51
2021/07/29 01:16:20;;;;;;;0.38;0.30;;;24.00;45.70;;;;;;5040659;28;20671;-46
2021/07/29 01:18:49;;;;;;;5.03;0.82;;;23.90;45.70;;;;;;5038855;28;20064;-51
2021/07/29 01:21:17;;;;;;;1.30;0.25;;;23.90;46.30;;;;;;5044956;28;20041;-53
2021/07/29 01:23:44;;;;;;;2.05;0.15;;;23.90;45.90;;;;;;5039154;28;20542;-53
2021/07/29 01:26:12;;;;;;;0.90;0.25;;;23.90;45.90;;;;;;5040982;28;20510;-51
2021/07/29 01:28:44;;;;;;;0.20;0.15;;;23.90;46.00;;;;;;5041590;28;20029;-47
2021/07/29 01:31:11;;;;;;;0.45;0.17;;;23.90;46.10;;;;;;5040959;28;20064;-47
2021/07/29 01:33:39;;;;;;;1.55;0.68;;;23.90;46.10;;;;;;5040619;28;20120;-52
2021/07/29 01:36:06;;;;;;;0.20;0.20;;;23.90;46.20;;;;;;5040553;28;20470;-48
2021/07/29 01:38:36;;;;;;;2.28;1.13;;;23.90;46.90;;;;;;5043795;28;20041;-50
2021/07/29 01:41:04;;;;;;;0.13;0.10;;;23.90;46.40;;;;;;5043156;28;20083;-48
2021/07/29 01:43:33;;;;;;;1.98;0.17;;;23.80;46.40;;;;;;5042713;28;20123;-46
2021/07/29 01:46:00;;;;;;;1.08;0.10;;;23.80;46.50;;;;;;5041334;28;20136;-46
2021/07/29 01:48:28;;;;;;;0.90;0.20;;;23.80;46.70;;;;;;5042247;28;20045;-52
2021/07/29 01:50:55;;;;;;;0.10;0.10;;;23.80;46.80;;;;;;5043070;28;20090;-49
2021/07/29 01:53:23;;;;;;;0.65;0.15;;;23.70;46.80;;;;;;5039187;28;20507;-43
2021/07/29 01:55:51;;;;;;;1.00;0.30;;;23.70;46.90;;;;;;5040971;28;20072;-50
2021/07/29 01:58:19;;;;;;;0.10;0.10;;;23.70;47.00;;;;;;5040028;28;20064;-49
2021/07/29 02:00:47;;;;;;;0.20;0.20;;;23.70;47.20;;;;;;5039492;28;20046;-46
2021/07/29 02:03:14;;;;;;;0.20;0.10;;;23.70;47.30;;;;;;5041740;28;20111;-47
2021/07/29 02:05:41;;;;;;;3.08;0.10;;;23.70;47.50;;;;;;5042299;28;20120;-45
2021/07/29 02:08:09;;;;;;;0.70;0.17;;;23.70;47.60;;;;;;5042126;28;20053;-45
2021/07/29 02:10:36;;;;;;;2.00;0.10;;;23.70;47.70;;;;;;5042191;28;20121;-46
2021/07/29 02:13:04;;;;;;;0.90;0.20;;;23.70;47.70;;;;;;5043575;28;20044;-52
2021/07/29 02:15:31;;;;;;;0.68;0.22;;;23.70;47.80;;;;;;5042513;28;20072;-50
2021/07/29 02:17:59;;;;;;;1.17;0.17;;;23.60;47.80;;;;;;5041213;28;20489;-47
2021/07/29 02:20:27;;;;;;;2.67;0.82;;;23.60;47.90;;;;;;5040704;28;20561;-49
2021/07/29 02:22:54;;;;;;;2.25;0.10;;;23.60;48.00;;;;;;5039281;28;20132;-45
2021/07/29 02:25:21;;;;;;;0.50;0.20;;;23.60;48.00;;;;;;5040423;28;20120;-47
2021/07/29 02:27:48;;;;;;;0.88;0.10;;;23.60;48.10;;;;;;5039515;28;20049;-50
2021/07/29 02:30:17;;;;;;;2.25;0.20;;;23.60;48.20;;;;;;5037109;28;20125;-48
2021/07/29 02:32:44;;;;;;;0.93;0.25;;;23.60;48.30;;;;;;5036604;28;20477;-46
2021/07/29 02:35:11;;;;;;;0.30;0.10;;;23.60;48.50;;;;;;5040064;28;20036;-46
2021/07/29 02:37:38;;;;;;;0.45;0.22;;;23.60;48.60;;;;;;5044410;28;20077;-46
2021/07/29 02:40:06;;;;;;;1.30;0.10;;;23.60;48.70;;;;;;5042810;28;20458;-47
2021/07/29 02:42:33;;;;;;;0.65;0.10;;;23.50;48.60;;;;;;5041828;28;20044;-50
2021/07/29 02:45:00;;;;;;;0.43;0.10;;;23.50;48.60;;;;;;5048165;28;20131;-47
2021/07/29 02:47:28;;;;;;;1.88;0.63;;;23.60;48.60;;;;;;5042621;28;20128;-53
2021/07/29 02:49:55;;;;;;;3.17;0.40;;;23.60;48.50;;;;;;5036506;28;20116;-52
2021/07/29 02:52:22;;;;;;;2.47;0.10;;;23.50;48.40;;;;;;5045456;28;20115;-48
2021/07/29 02:54:50;;;;;;;2.45;0.20;;;23.50;48.40;;;;;;5042810;28;20094;-50
2021/07/29 02:57:18;;;;;;;0.40;0.10;;;23.50;48.40;;;;;;5048709;28;20474;-48
2021/07/29 02:59:45;;;;;;;2.83;0.70;;;23.60;48.40;;;;;;5040007;28;20072;-49
2021/07/29 03:02:11;;;;;;;0.75;0.20;;;23.50;48.30;;;;;;5040604;28;20045;-47
2021/07/29 03:04:40;;;;;;;3.03;0.20;;;23.50;48.20;;;;;;5045453;28;20143;-49
2021/07/29 03:07:07;;;;;;;0.98;0.20;;;23.50;48.20;;;;;;5033489;28;20136;-46
2021/07/29 03:09:35;;;;;;;2.72;0.22;;;23.40;48.20;;;;;;5040617;28;20493;-47
2021/07/29 03:12:02;;;;;;;0.80;0.20;;;23.50;48.20;;;;;;5038713;28;20037;-48
2021/07/29 03:14:29;;;;;;;0.68;0.45;;;23.40;48.20;;;;;;5039667;28;20056;-46
2021/07/29 03:16:56;;;;;;;0.20;0.20;;;23.40;48.20;;;;;;5046871;28;20044;-50
2021/07/29 03:19:24;;;;;;;1.75;0.35;;;23.40;48.20;;;;;;5036220;28;20103;-46
2021/07/29 03:21:52;;;;;;;1.05;0.90;;;23.40;48.20;;;;;;5038813;28;20511;-47
2021/07/29 03:24:19;;;;;;;0.43;0.20;;;23.40;48.30;;;;;;5047927;28;20557;-47
2021/07/29 03:26:46;;;;;;;1.15;0.17;;;23.40;48.30;;;;;;5042134;28;20128;-47
2021/07/29 03:29:14;;;;;;;0.25;0.13;;;23.40;48.30;;;;;;5038099;28;20059;-50
2021/07/29 03:31:41;;;;;;;0.70;0.10;;;23.40;48.30;;;;;;5044202;28;20041;-47
2021/07/29 03:34:08;;;;;;;1.08;0.10;;;23.40;48.40;;;;;;5042645;28;20471;-46
2021/07/29 03:36:35;;;;;;;1.55;0.20;;;23.40;48.50;;;;;;5043946;28;20589;-47
2021/07/29 03:39:05;;;;;;;1.08;0.10;;;23.40;48.50;;;;;;5046820;28;20102;-44
2021/07/29 03:41:33;;;;;;;2.45;0.15;;;23.40;48.60;;;;;;5044318;28;20072;-49
2021/07/29 03:44:00;;;;;;;0.75;0.20;;;23.40;48.60;;;;;;5045146;28;20037;-46
2021/07/29 03:46:27;;;;;;;1.23;0.28;;;23.30;48.70;;;;;;5043550;28;20063;-45
2021/07/29 03:48:57;;;;;;;0.25;0.10;;;23.30;48.90;;;;;;5043125;28;20541;-44
2021/07/29 03:51:24;;;;;;;0.82;0.52;;;23.40;48.80;;;;;;5045744;28;20071;-49
2021/07/29 03:53:51;;;;;;;2.35;0.30;;;23.30;48.80;;;;;;5042381;28;20087;-52
2021/07/29 03:56:20;;;;;;;1.35;0.30;;;23.30;48.80;;;;;;5036076;28;20041;-52
2021/07/29 03:58:47;;;;;;;0.95;0.13;;;23.30;48.90;;;;;;5044561;28;20029;-47
2021/07/29 04:01:14;;;;;;;2.83;0.30;;;23.30;48.90;;;;;;5042053;28;20127;-50
2021/07/29 04:03:41;;;;;;;0.82;0.20;;;23.30;49.00;;;;;;5045415;28;20029;-45
2021/07/29 04:06:08;;;;;;;2.63;1.02;;;23.30;49.00;;;;;;5046031;28;20087;-43
2021/07/29 04:08:36;;;;;;;3.85;0.40;;;23.30;49.20;;;;;;5035505;28;20039;-46
2021/07/29 04:11:06;;;;;;;2.53;0.10;;;23.30;49.20;;;;;;5040189;28;20037;-49
2021/07/29 04:13:35;;;;;;;1.08;0.10;;;23.30;49.30;;;;;;5041275;28;20033;-49
2021/07/29 04:16:02;;;;;;;3.63;0.40;;;23.30;49.30;;;;;;5039767;28;20063;-50
2021/07/29 04:18:31;;;;;;;2.75;0.30;;;23.30;49.40;;;;;;5045138;28;20140;-48
2021/07/29 04:20:58;;;;;;;1.38;0.65;;;23.30;49.40;;;;;;5044203;28;20048;-48
2021/07/29 04:23:25;;;;;;;1.20;0.20;;;23.30;49.40;;;;;;5038709;28;20041;-53
2021/07/29 04:25:53;;;;;;;2.53;0.20;;;23.30;49.50;;;;;;5034562;28;20086;-49
2021/07/29 04:28:20;;;;;;;0.88;0.15;;;23.30;49.50;;;;;;5036220;28;20550;-44
2021/07/29 04:30:48;;;;;;;1.67;0.25;;;23.30;49.50;;;;;;5042394;28;20037;-45
2021/07/29 04:33:15;;;;;;;0.28;0.20;;;23.30;49.50;;;;;;5046265;28;20044;-45
2021/07/29 04:35:42;;;;;;;1.08;0.20;;;23.20;49.50;;;;;;5044220;28;20487;-46
2021/07/29 04:38:09;;;;;;;0.20;0.10;;;23.30;49.60;;;;;;5038389;28;20106;-46
2021/07/29 04:40:36;;;;;;;1.38;0.30;;;23.20;49.50;;;;;;5040758;28;20140;-48
2021/07/29 04:43:03;;;;;;;1.95;0.20;;;23.20;49.60;;;;;;5041357;28;20133;-46
2021/07/29 04:45:30;;;;;;;2.85;0.38;;;23.30;49.70;;;;;;5032493;28;20052;-49
2021/07/29 04:47:59;;;;;;;1.63;0.20;;;23.20;49.60;;;;;;5042122;28;20049;-46
2021/07/29 04:50:26;;;;;;;1.25;0.20;;;23.30;49.80;;;;;;5037140;28;20126;-43
2021/07/29 04:52:53;;;;;;;0.98;0.13;;;23.30;49.80;;;;;;5043551;28;20072;-44
2021/07/29 04:55:20;;;;;;;0.50;0.20;;;23.20;49.70;;;;;;5042952;28;20701;-45
2021/07/29 04:57:48;;;;;;;0.60;0.32;;;23.20;49.80;;;;;;5038705;28;20051;-46
2021/07/29 05:00:15;;;;;;;0.90;0.20;;;23.20;49.80;;;;;;5041752;28;20053;-46
2021/07/29 05:02:42;;;;;;;2.42;0.20;;;23.30;49.90;;;;;;5044650;28;20041;-46
2021/07/29 05:05:12;;;;;;;4.70;0.63;;;23.20;49.80;;;;;;5043412;28;20076;-46
2021/07/29 05:07:39;;;;;;;0.65;0.20;;;23.30;50.00;;;;;;5037453;28;20045;-50
2021/07/29 05:10:07;;;;;;;2.72;0.20;;;23.20;50.00;;;;;;5043735;28;20051;-43
2021/07/29 05:12:34;;;;;;;2.22;0.20;;;23.30;50.10;;;;;;5037972;28;20047;-47
2021/07/29 05:15:01;;;;;;;4.47;0.20;;;23.30;50.70;;;;;;5039977;28;20048;-45
2021/07/29 05:17:28;;;;;;;2.05;0.20;;;23.30;50.00;;;;;;5037156;28;20450;-43
2021/07/29 05:19:55;;;;;;;1.83;0.20;;;23.30;50.00;;;;;;5035770;28;20068;-42
2021/07/29 05:22:23;;;;;;;1.23;0.43;;;23.30;49.90;;;;;;5040989;28;20099;-43
2021/07/29 05:24:50;;;;;;;1.85;0.30;;;23.30;49.90;;;;;;5042745;28;20037;-43
2021/07/29 05:27:17;;;;;;;1.55;0.30;;;23.30;50.00;;;;;;5043781;28;20055;-44
2021/07/29 05:29:44;;;;;;;1.13;0.20;;;23.30;50.00;;;;;;5038439;28;20136;-44
2021/07/29 05:32:11;;;;;;;1.20;0.20;;;23.30;50.60;;;;;;5037645;28;20045;-45
2021/07/29 05:34:38;;;;;;;3.88;0.22;;;23.30;50.00;;;;;;5039171;28;20514;-42
2021/07/29 05:37:06;;;;;;;0.35;0.17;;;23.30;50.00;;;;;;5040878;28;20102;-46
2021/07/29 05:39:35;;;;;;;0.32;0.17;;;23.30;50.10;;;;;;5038308;28;20041;-44
2021/07/29 05:42:02;;;;;;;2.78;0.28;;;23.30;50.20;;;;;;5040236;28;20132;-44
2021/07/29 05:44:29;;;;;;;1.55;0.60;;;23.30;50.20;;;;;;5037218;28;20384;-43
2021/07/29 05:46:56;;;;;;;1.50;0.40;;;23.30;50.20;;;;;;5041357;28;20045;-44
2021/07/29 05:49:23;;;;;;;0.30;0.10;;;23.30;50.20;;;;;;5040192;28;20457;-47
2021/07/29 05:51:50;;;;;;;1.20;0.17;;;23.30;50.20;;;;;;5039814;28;20044;-44
2021/07/29 05:54:17;;;;;;;1.85;0.20;;;23.30;50.10;;;;;;5043053;28;20712;-49
2021/07/29 05:56:47;;;;;;;3.72;0.30;;;23.30;50.10;;;;;;5041432;28;20053;-46
2021/07/29 05:59:14;;;;;;;1.45;0.22;;;23.30;50.10;;;;;;5035462;28;20042;-49
2021/07/29 06:01:42;;;;;;;2.03;0.13;;;23.30;50.10;;;;;;5036744;28;20048;-43
2021/07/29 06:04:09;;;;;;;3.20;0.20;;;23.30;50.10;;;;;;5037701;28;20069;-45
2021/07/29 06:06:36;;;;;;;1.60;0.15;;;23.30;50.10;;;;;;5043727;28;20465;-45
2021/07/29 06:09:03;;;;;;;2.50;0.20;;;23.30;50.10;;;;;;5041313;28;20123;-46
2021/07/29 06:11:31;;;;;;;1.63;0.20;;;23.30;50.10;;;;;;5039933;28;20462;-45
2021/07/29 06:14:00;;;;;;;0.63;0.38;;;23.30;50.00;;;;;;5046384;28;20041;-45
2021/07/29 06:16:27;;;;;;;4.25;0.20;;;23.30;50.00;;;;;;5043371;28;20537;-47
2021/07/29 06:19:04;;;;;;;4.65;0.40;;;23.30;50.00;;;;;;5046374;28;20094;-39
2021/07/29 06:21:32;;;;;;;2.95;0.30;;;23.30;51.00;;;;;;5044581;28;20063;-39
2021/07/29 06:23:59;;;;;;;2.28;0.30;;;23.40;51.30;;;;;;5043669;28;20037;-45
2021/07/29 06:26:26;;;;;;;3.30;0.30;;;23.30;51.90;;;;;;5037240;28;20151;-43
2021/07/29 06:28:53;;;;;;;1.38;0.20;;;23.40;52.00;;;;;;5039194;28;20051;-45
2021/07/29 06:31:22;;;;;;;2.80;1.15;;;23.40;52.70;;;;;;5040884;28;20044;-48
2021/07/29 06:33:49;;;;;;;3.47;0.85;;;23.40;52.30;;;;;;5044621;28;20083;-48
2021/07/29 06:36:16;;;;;;;3.47;0.38;;;23.40;52.30;;;;;;5042376;28;20062;-45
2021/07/29 06:38:44;;;;;;;3.10;0.20;;;23.40;52.60;;;;;;5033544;28;20041;-44
2021/07/29 06:41:11;;;;;;;4.05;0.50;;;23.40;52.30;;;;;;5035991;28;20138;-50
2021/07/29 06:43:38;;;;;;;11.35;1.20;;;23.40;52.50;;;;;;5035729;28;20685;-53
2021/07/29 06:46:06;;;;;;;11.75;1.42;;;23.50;52.70;;;;;;5045672;28;20523;-55
2021/07/29 06:48:36;;;;;;;6.88;0.40;;;23.50;52.70;;;;;;5047735;28;20044;-52
2021/07/29 06:51:03;;;;;;;4.28;0.20;;;23.60;52.70;;;;;;5040155;28;20072;-53
2021/07/29 06:53:30;;;;;;;3.03;0.38;;;23.60;52.80;;;;;;5040185;28;20041;-53
2021/07/29 06:55:59;;;;;;;1.90;0.20;;;23.60;52.90;;;;;;5039449;28;20099;-52
2021/07/29 06:58:26;;;;;;;6.47;0.50;;;23.70;53.20;;;;;;5035554;28;20075;-51
2021/07/29 07:00:53;;;;;;;2.03;0.35;;;23.70;53.10;;;;;;5030598;28;20603;-50
2021/07/29 07:03:21;;;;;;;2.78;0.40;;;23.70;53.40;;;;;;5036052;28;20045;-53
2021/07/29 07:05:49;;;;;;;3.70;0.30;;;23.80;53.40;;;;;;5039867;28;20119;-51
2021/07/29 07:08:17;;;;;;;6.75;0.52;;;23.80;53.40;;;;;;5041902;28;20160;-51
2021/07/29 07:10:44;;;;;;;2.80;0.20;;;23.80;53.40;;;;;;5034566;28;20046;-51
2021/07/29 07:13:11;;;;;;;3.65;0.73;;;23.90;53.40;;;;;;5042393;28;20120;-52
2021/07/29 07:15:38;;;;;;;1.65;0.30;;;23.90;53.50;;;;;;5037615;28;20079;-53
2021/07/29 07:18:05;;;;;;;3.83;0.20;;;23.90;53.60;;;;;;5043882;28;20164;-51
2021/07/29 07:20:32;;;;;;;2.47;0.32;;;24.00;53.70;;;;;;5038064;28;20091;-49
2021/07/29 07:23:01;;;;;;;2.47;0.20;;;24.00;53.70;;;;;;5039056;28;20044;-54
2021/07/29 07:25:28;;;;;;;1.20;0.13;;;24.00;53.70;;;;;;5036178;28;20040;-53
2021/07/29 07:27:55;;;;;;;0.38;0.10;;;24.10;53.70;;;;;;5034639;28;20048;-51
2021/07/29 07:30:22;;;;;;;0.85;0.30;;;24.10;53.70;;;;;;5039576;28;20593;-51
2021/07/29 07:32:49;;;;;;;1.15;0.40;;;24.10;53.80;;;;;;5042013;28;20083;-53
2021/07/29 07:35:16;;;;;;;2.08;0.30;;;24.10;53.70;;;;;;5041729;28;20125;-53
2021/07/29 07:37:44;;;;;;;1.85;0.20;;;24.20;53.70;;;;;;5036556;28;20090;-52
2021/07/29 07:40:13;;;;;;;3.40;0.52;;;24.20;53.80;;;;;;5036858;28;20053;-50
2021/07/29 07:42:40;;;;;;;2.97;0.47;;;24.20;53.80;;;;;;5036681;28;20476;-52
2021/07/29 07:45:08;;;;;;;2.20;0.28;;;24.20;53.90;;;;;;5039611;28;20842;-51
2021/07/29 07:47:36;;;;;;;0.73;0.10;;;24.30;53.90;;;;;;5039569;28;20053;-53
2021/07/29 07:50:03;;;;;;;1.85;0.20;;;24.30;53.90;;;;;;5039252;28;20053;-52
2021/07/29 07:52:30;;;;;;;1.35;0.45;;;24.30;53.90;;;;;;5034027;28;20049;-49
2021/07/29 07:54:57;;;;;;;1.02;0.50;;;24.40;54.70;;;;;;5046570;28;20379;-52
2021/07/29 07:57:26;;;;;;;1.13;0.17;;;24.40;53.90;;;;;;5031730;28;20511;-49
2021/07/29 07:59:58;;;;;;;1.00;0.30;;;24.40;53.90;;;;;;5039710;28;20141;-53
2021/07/29 08:02:25;;;;;;;1.95;0.45;;;24.40;54.10;;;;;;5040092;28;20052;-52
2021/07/29 08:04:53;;;;;;;0.43;0.30;;;24.40;54.20;;;;;;5037531;28;20106;-54
2021/07/29 08:07:20;;;;;;;2.92;0.35;;;24.40;54.00;;;;;;5034242;28;20178;-53
2021/07/29 08:09:48;;;;;;;3.20;1.17;;;24.40;54.10;;;;;;5030502;28;20037;-51
2021/07/29 08:12:15;;;;;;;1.98;0.10;;;24.50;54.10;;;;;;5044394;28;20041;-52
2021/07/29 08:14:43;;;;;;;2.75;1.85;;;24.50;54.10;;;;;;5042294;28;20038;-52
2021/07/29 08:17:11;;;;;;;2.15;0.68;;;24.50;54.00;;;;;;5040857;28;20102;-54
2021/07/29 08:19:38;;;;;;;0.88;0.20;;;24.50;54.00;;;;;;5033405;28;20128;-54
2021/07/29 08:22:05;;;;;;;2.13;0.30;;;24.50;54.00;;;;;;5045945;28;20080;-55
2021/07/29 08:24:33;;;;;;;0.45;0.30;;;24.60;54.10;;;;;;5037274;28;20045;-53
2021/07/29 08:27:01;;;;;;;0.68;0.20;;;24.60;54.00;;;;;;5040585;28;20101;-54
2021/07/29 08:29:30;;;;;;;0.38;0.10;;;24.60;53.90;;;;;;5038533;28;20049;-52
2021/07/29 08:31:59;;;;;;;1.23;0.30;;;24.60;53.80;;;;;;5037390;28;20052;-52
2021/07/29 08:34:26;;;;;;;1.23;0.20;;;24.60;53.90;;;;;;5033522;28;20040;-50
2021/07/29 08:36:54;;;;;;;0.32;0.17;;;24.60;53.90;;;;;;5030782;28;20540;-48
2021/07/29 08:39:21;;;;;;;0.85;0.10;;;24.60;53.80;;;;;;5034248;28;20045;-55
2021/07/29 08:41:48;;;;;;;1.23;0.98;;;24.70;53.80;;;;;;5041096;28;20110;-54
2021/07/29 08:44:15;;;;;;;0.85;0.20;;;24.70;53.80;;;;;;5037715;28;20520;-54
2021/07/29 08:46:45;;;;;;;1.88;0.30;;;24.70;53.80;;;;;;5037539;28;20095;-55
2021/07/29 08:49:15;;;;;;;0.63;0.17;;;24.70;53.80;;;;;;5033198;28;20482;-49
2021/07/29 08:51:42;;;;;;;0.52;0.10;;;24.70;53.70;;;;;;5032484;28;20059;-53
2021/07/29 08:54:13;;;;;;;0.80;0.10;;;24.70;53.50;;;;;;5045402;28;20037;-50
2021/07/29 08:56:40;;;;;;;0.73;0.13;;;24.70;53.40;;;;;;5039527;28;20071;-51
2021/07/29 08:59:08;;;;;;;0.15;0.10;;;24.80;53.40;;;;;;5038110;28;20041;-50
2021/07/29 09:01:42;;;;;;;2.08;0.10;;;24.80;53.40;;;;;;5045332;28;20124;-52
2021/07/29 09:04:16;;;;;;;0.55;0.10;;;24.80;53.40;;;;;;5033195;28;20057;-54
2021/07/29 09:06:57;;;;;;;2.63;0.22;;;24.80;53.40;;;;;;5034446;28;20047;-54
2021/07/29 09:09:41;;;;;;;2.45;0.57;;;24.80;53.40;;;;;;5081816;27;20416;-51
2021/07/29 09:12:19;;;;;;;0.20;0.10;;;24.80;53.40;;;;;;5076257;28;20142;-54
2021/07/29 09:14:47;;;;;;;0.10;0.10;;;24.90;53.50;;;;;;5074991;28;20045;-54
2021/07/29 09:17:14;;;;;;;0.30;0.10;;;24.80;53.40;;;;;;5068239;28;20124;-52
2021/07/29 09:19:44;;;;;;;0.15;0.10;;;24.90;53.10;;;;;;5077050;28;20060;-53
2021/07/29 09:22:16;;;;;;;0.88;0.10;;;24.90;53.20;;;;;;5080052;28;20059;-53
2021/07/29 09:25:03;;;;;;;0.32;0.10;;;24.90;53.20;;;;;;5073306;28;20040;-53
2021/07/29 09:27:42;;;;;;;1.13;0.10;;;24.90;53.00;;;;;;5079886;28;20126;-52
2021/07/29 09:30:14;;;;;;;0.85;0.10;;;24.90;53.10;;;;;;5077687;28;20448;-52
2021/07/29 09:32:52;;;;;;;0.90;0.10;;;24.90;53.10;;;;;;5074231;28;20044;-55
2021/07/29 09:35:44;;;;;;;3.17;0.55;;;24.90;52.90;;;;;;5063125;28;20166;-53
2021/07/29 09:38:20;;;;;;;1.73;0.10;;;25.00;53.00;;;;;;5078253;28;20530;-54
2021/07/29 09:40:50;;;;;;;;;;;24.90;53.00;;;;;;5077287;28;20040;-53
2021/07/29 09:43:18;;;;;;;0.85;0.25;;;24.90;52.90;;;;;;5078375;28;19965;-55
2021/07/29 09:45:47;;;;;;;0.20;0.20;;;24.90;53.10;;;;;;5064258;28;20661;-54
2021/07/29 09:48:14;;;;;;;1.48;0.43;;;24.90;53.70;;;;;;5063574;28;20616;-55
2021/07/29 09:50:42;;;;;;;0.95;0.20;;;25.00;52.90;;;;;;5062582;28;20052;-54
2021/07/29 09:53:10;;;;;;;1.05;0.20;;;25.00;52.80;;;;;;5062171;28;20119;-53
2021/07/29 09:55:37;;;;;;;2.15;0.15;;;25.00;52.80;;;;;;5061022;28;20119;-51
2021/07/29 09:58:06;;;;;;;0.20;0.10;;;25.00;52.80;;;;;;5048257;28;20510;-53
2021/07/29 10:00:36;;;;;;;3.03;0.22;;;25.00;52.70;;;;;;5057208;28;20157;-53
2021/07/29 10:03:06;;;;;;;0.93;0.10;;;25.00;52.70;;;;;;5055854;28;20072;-54
2021/07/29 10:05:48;;;;;;;0.77;0.20;;;25.00;52.40;;;;;;5078081;28;20047;-54
2021/07/29 10:08:27;;;;;;;0.45;0.00;;;25.10;52.50;;;;;;5061966;28;20048;-51
2021/07/29 10:10:54;;;;;;;0.20;0.20;;;25.10;53.10;;;;;;5058271;28;20037;-52
2021/07/29 10:13:35;;;;;;;1.23;0.30;;;25.10;52.50;;;;;;5058134;28;20045;-53
2021/07/29 10:16:02;;;;;;;0.30;0.10;;;25.10;52.30;;;;;;5057067;28;20041;-53
2021/07/29 10:19:08;;;;;;;1.23;0.40;;;25.10;52.40;;;;;;5057930;28;20048;-54
2021/07/29 10:21:38;;;;;;;2.15;0.13;;;25.20;52.20;;;;;;5049295;28;20044;-52
2021/07/29 10:24:06;;;;;;;2.30;0.17;;;25.10;52.20;;;;;;5043118;28;20056;-56
2021/07/29 10:26:35;;;;;;;0.57;0.52;;;25.10;52.10;;;;;;5043525;28;20606;-55
2021/07/29 10:29:24;;;;;;;1.20;0.17;;;25.20;52.20;;;;;;5049060;28;20132;-52
2021/07/29 10:31:53;;;;;;;0.80;0.20;;;25.20;51.90;;;;;;5048921;28;20517;-54
2021/07/29 10:34:28;;;;;;;0.57;0.32;;;25.20;52.00;;;;;;5038205;28;20037;-49
2021/07/29 10:36:56;;;;;;;1.40;0.40;;;25.20;52.00;;;;;;5044108;28;20052;-53
2021/07/29 10:39:23;;;;;;;0.63;0.10;;;25.20;52.00;;;;;;5049811;28;20056;-53
2021/07/29 10:41:53;;;;;;;0.90;0.22;;;25.20;51.80;;;;;;5047617;28;20518;-48
2021/07/29 10:44:49;;;;;;;0.65;0.20;;;25.30;51.90;;;;;;5043082;28;20690;-53
2021/07/29 10:47:38;;;;;;;0.10;0.10;;;25.30;51.70;;;;;;5047999;28;20045;-52
2021/07/29 10:50:10;;;;;;;0.35;0.20;;;25.20;51.60;;;;;;5036267;28;20144;-51
2021/07/29 10:52:38;;;;;;;1.10;0.50;;;25.30;51.70;;;;;;5047910;28;20040;-53
2021/07/29 10:55:10;;;;;;;0.40;0.30;;;25.30;51.60;;;;;;5048431;28;20124;-53
2021/07/29 10:57:37;;;;;;;1.63;0.35;;;25.30;51.50;;;;;;5037116;28;20053;-51
2021/07/29 11:00:07;;;;;;;2.83;0.85;;;25.30;51.50;;;;;;5043667;28;20041;-54
2021/07/29 11:02:41;;;;;;;0.93;0.35;;;25.30;51.40;;;;;;5042492;28;20407;-56
2021/07/29 11:05:09;;;;;;;0.75;0.47;;;25.30;51.30;;;;;;5042422;28;20044;-56
2021/07/29 11:07:41;;;;;;;1.58;0.40;;;25.30;51.20;;;;;;5048255;28;20049;-54
2021/07/29 11:10:10;;;;;;;1.90;0.30;;;25.30;51.70;;;;;;5044934;28;20033;-56
2021/07/29 11:12:39;;;;;;;0.47;0.20;;;25.40;51.10;;;;;;5045974;28;20095;-56
2021/07/29 11:15:10;;;;;;;0.82;0.75;;;25.40;51.00;;;;;;5047732;28;20071;-53
2021/07/29 11:17:38;;;;;;;1.13;0.30;;;25.40;50.90;;;;;;5042643;28;20507;-53
2021/07/29 11:20:08;;;;;;;1.00;0.20;;;25.40;50.90;;;;;;5042433;28;20143;-54
2021/07/29 11:22:43;;;;;;;1.00;0.43;;;25.40;50.80;;;;;;5046333;28;20084;-56
2021/07/29 11:25:11;;;;;;;1.50;0.30;;;25.40;50.70;;;;;;5034382;28;20049;-53
2021/07/29 11:27:38;;;;;;;3.13;0.30;;;25.40;50.70;;;;;;5041949;28;20036;-53
2021/07/29 11:30:08;;;;;;;0.90;0.20;;;25.40;50.60;;;;;;5048543;28;20584;-55
2021/07/29 11:32:37;;;;;;;3.53;0.47;;;25.50;50.60;;;;;;5046324;28;20140;-53
2021/07/29 11:35:05;;;;;;;0.77;0.10;;;25.50;50.70;;;;;;5042714;28;20041;-55
2021/07/29 11:37:40;;;;;;;1.05;0.55;;;25.50;50.60;;;;;;5036779;28;20152;-54
2021/07/29 11:40:17;;;;;;;1.00;0.52;;;25.50;50.60;;;;;;5047381;28;20754;-55
2021/07/29 11:42:45;;;;;;;0.85;0.25;;;25.50;50.60;;;;;;5036076;28;20569;-53
2021/07/29 11:45:27;;;;;;;0.47;0.30;;;25.50;50.50;;;;;;5048979;28;20142;-54
2021/07/29 11:47:54;;;;;;;0.40;0.40;;;25.60;50.40;;;;;;5042255;28;20041;-56
2021/07/29 11:50:39;;;;;;;0.45;0.38;;;25.60;50.40;;;;;;5039650;28;20042;-55
2021/07/29 11:53:07;;;;;;;0.73;0.22;;;25.60;50.30;;;;;;5035300;28;20065;-55
2021/07/29 11:55:34;;;;;;;1.17;0.28;;;25.60;50.30;;;;;;5036741;28;20075;-54
2021/07/29 11:58:06;;;;;;;0.25;0.10;;;25.60;50.30;;;;;;5046770;28;20045;-56
2021/07/29 12:00:35;;;;;;;1.83;0.20;;;25.60;50.30;;;;;;5041734;28;20051;-56
2021/07/29 12:03:04;;;;;;;2.80;0.52;;;25.60;50.30;;;;;;5048010;28;20419;-53
2021/07/29 12:05:33;;;;;;;1.10;0.22;;;25.60;50.30;;;;;;5046844;28;20765;-55
2021/07/29 12:08:03;;;;;;;0.52;0.10;;;25.70;50.20;;;;;;5041896;28;20259;-51
2021/07/29 12:10:32;;;;;;;0.45;0.20;;;25.70;50.20;;;;;;5039720;28;20056;-55
2021/07/29 12:13:01;;;;;;;2.20;0.22;;;25.70;50.10;;;;;;5045382;28;20511;-53
2021/07/29 12:15:28;;;;;;;1.25;0.32;;;25.70;50.00;;;;;;5047061;28;20595;-56
2021/07/29 12:18:15;;;;;;;2.38;0.20;;;25.80;50.10;;;;;;5044522;28;20156;-56
2021/07/29 12:20:43;;;;;;;0.20;0.10;;;25.80;50.00;;;;;;5046276;28;20513;-55
2021/07/29 12:23:11;;;;;;;1.05;0.10;;;25.80;50.10;;;;;;5046293;28;20706;-56
2021/07/29 12:25:39;;;;;;;3.20;0.20;;;25.80;50.00;;;;;;5035747;28;20045;-56
2021/07/29 12:28:06;;;;;;;2.40;0.10;;;25.80;49.80;;;;;;5035304;28;20037;-55
2021/07/29 12:30:35;;;;;;;0.10;0.10;;;25.90;49.80;;;;;;5036340;28;20142;-56
2021/07/29 12:33:06;;;;;;;1.23;0.10;;;25.90;49.80;;;;;;5034327;28;20838;-57
2021/07/29 12:35:35;;;;;;;1.35;0.10;;;25.90;49.70;;;;;;5039087;28;20046;-55
2021/07/29 12:38:02;;;;;;;0.55;0.10;;;25.90;49.60;;;;;;5038813;28;20412;-57
2021/07/29 12:40:31;;;;;;;0.90;0.32;;;26.00;49.60;;;;;;5035338;28;20049;-57
2021/07/29 12:43:21;;;;;;;1.30;0.10;;;26.00;49.70;;;;;;5031035;28;20053;-56
2021/07/29 12:45:53;;;;;;;0.22;0.10;;;26.00;49.70;;;;;;5030049;28;20052;-51
2021/07/29 12:48:21;;;;;;;0.73;0.10;;;26.00;49.80;;;;;;5040585;28;20117;-57
2021/07/29 12:50:50;;;;;;;0.68;0.10;;;26.00;49.80;;;;;;5035531;28;20034;-57
2021/07/29 12:53:18;;;;;;;0.52;0.10;;;26.10;49.80;;;;;;5031580;28;20522;-57
2021/07/29 12:55:47;;;;;;;1.08;0.20;;;26.10;49.90;;;;;;5036599;28;20041;-57
2021/07/29 12:58:15;;;;;;;0.65;0.10;;;26.10;49.90;;;;;;5034984;28;20059;-58